createdAt,value
2019-01-27T03:14:02.594Z,7.93
2019-01-27T03:15:02.574Z,7.96
2019-01-27T03:16:02.622Z,8.00
2019-01-27T03:17:02.538Z,7.96
2019-01-27T03:18:02.485Z,8.10
2019-01-27T03:19:02.495Z,7.99
2019-01-27T03:20:02.527Z,7.97
2019-01-27T03:21:02.497Z,8.07
2019-01-27T03:22:02.460Z,8.03
2019-01-27T03:23:11.155Z,8.02
2019-01-27T03:25:06.930Z,8.00
2019-01-27T03:26:06.879Z,7.97
2019-01-27T03:27:06.880Z,8.08
2019-01-27T03:28:06.865Z,8.04
2019-01-27T03:29:06.857Z,7.99
2019-01-27T03:30:06.869Z,7.97
2019-01-27T03:31:06.960Z,7.96
2019-01-27T03:32:06.827Z,8.00
2019-01-27T03:33:06.828Z,8.07
2019-01-27T03:34:06.822Z,8.11
2019-01-27T03:35:06.810Z,7.96
2019-01-27T03:36:06.875Z,8.03
2019-01-27T03:37:06.799Z,8.04
2019-01-27T03:38:06.781Z,8.07
2019-01-27T03:39:06.800Z,8.10
2019-01-27T03:40:06.763Z,7.97
2019-01-27T03:41:06.791Z,8.08
2019-01-27T03:42:06.774Z,8.08
2019-01-27T03:43:06.737Z,8.10
2019-01-27T03:44:06.760Z,8.07
2019-01-27T03:45:06.715Z,8.14
2019-01-27T03:46:06.741Z,8.18
2019-01-27T03:47:06.713Z,8.17
2019-01-27T03:48:06.695Z,8.15
2019-01-27T03:49:06.692Z,8.11
2019-01-27T03:50:06.688Z,8.12
2019-01-27T03:51:06.674Z,8.15
2019-01-27T03:52:06.670Z,8.12
2019-01-27T03:53:06.651Z,8.20
2019-01-27T03:54:06.679Z,8.08
2019-01-27T03:55:06.644Z,8.15
2019-01-27T03:56:06.684Z,8.03
2019-01-27T03:57:06.662Z,8.14
2019-01-27T03:58:06.646Z,8.11
2019-01-27T03:59:06.608Z,8.10
2019-01-27T04:00:06.607Z,8.11
2019-01-27T04:01:06.647Z,8.11
2019-01-27T04:02:06.584Z,8.17
2019-01-27T04:03:06.571Z,8.15
2019-01-27T04:04:06.573Z,8.12
2019-01-27T04:05:06.701Z,8.11
2019-01-27T04:06:06.587Z,8.22
2019-01-27T04:07:06.539Z,8.22
2019-01-27T04:08:06.548Z,8.11
2019-01-27T04:09:06.516Z,8.14
2019-01-27T04:10:06.513Z,8.11
2019-01-27T04:11:06.528Z,8.20
2019-01-27T04:12:06.499Z,8.11
2019-01-27T04:13:06.539Z,8.12
2019-01-27T04:14:06.484Z,8.11
2019-01-27T04:15:06.568Z,8.08
2019-01-27T04:16:06.461Z,7.93
2019-01-27T04:17:06.483Z,7.99
2019-01-27T04:18:06.459Z,7.94
2019-01-27T04:19:06.436Z,8.04
2019-01-27T04:20:06.453Z,8.02
2019-01-27T04:21:06.422Z,7.99
2019-01-27T04:22:06.410Z,7.97
2019-01-27T04:23:06.401Z,7.93
2019-01-27T04:24:06.391Z,7.97
2019-01-27T04:25:06.396Z,7.92
2019-01-27T04:26:06.419Z,7.90
2019-01-27T04:27:06.375Z,7.90
2019-01-27T04:28:06.410Z,7.77
2019-01-27T04:29:06.349Z,7.87
2019-01-27T04:30:06.368Z,7.85
2019-01-27T04:31:06.332Z,7.77
2019-01-27T04:32:06.321Z,7.78
2019-01-27T04:33:06.339Z,7.87
2019-01-27T04:34:06.305Z,7.78
2019-01-27T04:35:06.299Z,7.79
2019-01-27T04:36:06.295Z,7.74
2019-01-27T04:37:06.300Z,7.72
2019-01-27T04:38:06.279Z,7.74
2019-01-27T04:39:06.295Z,7.62
2019-01-27T04:40:06.259Z,7.60
2019-01-27T04:41:14.944Z,7.62
2019-01-27T04:43:10.819Z,7.67
2019-01-27T04:44:10.709Z,7.59
2019-01-27T04:45:19.371Z,7.59
2019-01-27T04:47:15.243Z,7.60
2019-01-27T04:48:15.201Z,7.56
2019-01-27T04:49:15.177Z,7.62
2019-01-27T04:50:15.181Z,7.50
2019-01-27T04:51:15.157Z,7.45
2019-01-27T04:52:15.145Z,7.52
2019-01-27T04:53:15.114Z,7.45
2019-01-27T04:54:15.112Z,7.47
2019-01-27T04:55:15.126Z,7.50
2019-01-27T04:56:23.969Z,7.50
2019-01-27T04:58:28.627Z,7.56
2019-01-27T04:59:19.668Z,7.45
2019-01-27T05:00:28.444Z,7.50
2019-01-27T05:02:14.047Z,7.49
2019-01-27T05:03:13.987Z,7.47
2019-01-27T05:04:22.713Z,7.44
2019-01-27T05:06:18.523Z,7.47
2019-01-27T05:07:27.970Z,7.52
2019-01-27T05:09:23.582Z,7.49
2019-01-27T05:10:31.793Z,7.40
2019-01-27T05:12:27.652Z,7.40
2019-01-27T05:13:36.304Z,7.42
2019-01-27T05:16:17.100Z,7.42
2019-01-27T05:17:15.697Z,7.38
2019-01-27T05:19:22.763Z,7.35
2019-01-27T05:20:22.697Z,7.40
2019-01-27T05:21:32.019Z,7.35
2019-01-27T05:23:27.251Z,7.35
2019-01-27T05:24:27.200Z,7.27
2019-01-27T05:25:27.190Z,7.22
2019-01-27T05:26:27.142Z,7.31
2019-01-27T05:27:27.143Z,7.29
2019-01-27T05:28:27.142Z,7.26
2019-01-27T05:29:27.126Z,7.20
2019-01-27T05:30:27.157Z,7.24
2019-01-27T05:33:31.889Z,7.22
2019-01-27T05:34:40.305Z,7.16
2019-01-27T05:36:37.583Z,7.31
2019-01-27T05:37:37.107Z,7.16
2019-01-27T05:40:09.273Z,7.12
2019-01-27T05:41:09.185Z,7.15
2019-01-27T05:42:09.162Z,7.16
2019-01-27T05:43:09.171Z,7.19
2019-01-27T05:44:09.146Z,7.17
2019-01-27T05:45:09.139Z,7.12
2019-01-27T05:46:09.144Z,7.13
2019-01-27T05:47:09.104Z,7.15
2019-01-27T05:48:09.144Z,7.16
2019-01-27T05:49:09.083Z,7.23
2019-01-27T05:50:09.118Z,7.16
2019-01-27T05:51:09.071Z,7.19
2019-01-27T05:52:09.077Z,7.19
2019-01-27T05:53:09.072Z,7.22
2019-01-27T05:54:09.043Z,7.22
2019-01-27T05:55:09.071Z,7.17
2019-01-27T05:56:09.076Z,7.20
2019-01-27T05:57:09.010Z,7.23
2019-01-27T05:58:09.029Z,7.24
2019-01-27T05:59:08.986Z,7.29
2019-01-27T06:00:09.013Z,7.26
2019-01-27T06:01:09.001Z,7.29
2019-01-27T06:02:08.993Z,7.29
2019-01-27T06:03:08.953Z,7.32
2019-01-27T06:04:08.958Z,7.31
2019-01-27T06:05:08.951Z,7.35
2019-01-27T06:06:08.923Z,7.35
2019-01-27T06:07:08.926Z,7.26
2019-01-27T06:08:08.905Z,7.26
2019-01-27T06:09:08.965Z,7.34
2019-01-27T06:10:08.896Z,7.32
2019-01-27T06:11:08.878Z,7.38
2019-01-27T06:12:08.898Z,7.37
2019-01-27T06:13:08.899Z,7.41
2019-01-27T06:14:08.901Z,7.40
2019-01-27T06:15:08.849Z,7.38
2019-01-27T06:16:17.539Z,7.38
2019-01-27T06:18:13.511Z,7.37
2019-01-27T06:19:13.406Z,7.44
2019-01-27T06:20:13.416Z,7.49
2019-01-27T06:21:13.389Z,7.45
2019-01-27T06:22:13.348Z,7.49
2019-01-27T06:23:13.380Z,7.49
2019-01-27T06:24:13.363Z,7.53
2019-01-27T06:25:13.372Z,7.50
2019-01-27T06:26:22.842Z,7.44
2019-01-27T06:28:17.888Z,7.52
2019-01-27T06:29:25.483Z,7.45
2019-01-27T06:30:27.293Z,7.47
2019-01-27T06:32:11.291Z,7.56
2019-01-27T06:33:11.205Z,7.53
2019-01-27T06:34:18.937Z,7.45
2019-01-27T06:35:19.860Z,7.47
2019-01-27T06:37:15.724Z,7.55
2019-01-27T06:38:25.188Z,7.50
2019-01-27T06:40:30.186Z,7.45
2019-01-27T06:41:29.009Z,7.49
2019-01-27T06:43:24.848Z,7.49
2019-01-27T06:44:24.715Z,7.47
2019-01-27T06:45:24.717Z,7.47
2019-01-27T06:46:25.481Z,7.49
2019-01-27T06:47:24.716Z,7.47
2019-01-27T06:48:33.517Z,7.45
2019-01-27T06:49:34.345Z,7.52
2019-01-27T06:51:40.164Z,7.49
2019-01-27T06:52:30.167Z,7.55
2019-01-27T06:53:38.827Z,7.47
2019-01-27T06:55:34.683Z,7.47
2019-01-27T06:56:44.135Z,7.59
2019-01-27T06:58:48.121Z,7.58
2019-01-27T06:59:48.565Z,7.47
2019-01-27T07:01:32.498Z,7.50
2019-01-27T07:02:42.012Z,7.52
2019-01-27T07:04:38.012Z,7.50
2019-01-27T07:05:47.468Z,7.44
2019-01-27T07:07:42.444Z,7.53
2019-01-27T07:08:51.889Z,7.62
2019-01-27T07:10:46.929Z,7.50
2019-01-27T07:11:46.839Z,7.45
2019-01-27T07:12:56.380Z,7.44
2019-01-27T07:14:51.366Z,7.50
2019-01-27T07:15:51.312Z,7.47
2019-01-27T07:16:51.286Z,7.50
2019-01-27T07:17:59.991Z,7.47
2019-01-27T07:20:04.846Z,7.50
2019-01-27T07:20:55.747Z,7.47
2019-01-27T07:22:04.366Z,7.56
2019-01-27T07:24:01.319Z,7.58
2019-01-27T07:25:01.216Z,7.60
2019-01-27T07:26:01.266Z,7.59
2019-01-27T07:27:01.231Z,7.71
2019-01-27T07:28:01.174Z,7.67
2019-01-27T07:29:01.144Z,7.75
2019-01-27T07:30:01.143Z,7.75
2019-01-27T07:31:01.127Z,7.78
2019-01-27T07:32:01.130Z,7.74
2019-01-27T07:33:01.116Z,7.79
2019-01-27T07:34:01.140Z,7.77
2019-01-27T07:35:01.091Z,7.75
2019-01-27T07:36:01.084Z,7.79
2019-01-27T07:37:01.068Z,7.77
2019-01-27T07:38:01.084Z,7.82
2019-01-27T07:39:01.097Z,7.87
2019-01-27T07:40:01.066Z,7.90
2019-01-27T07:41:01.040Z,7.93
2019-01-27T07:42:01.087Z,7.90
2019-01-27T07:43:01.041Z,7.99
2019-01-27T07:44:01.015Z,7.94
2019-01-27T07:45:01.011Z,7.90
2019-01-27T07:46:01.016Z,8.00
2019-01-27T07:47:01.008Z,7.96
2019-01-27T07:48:01.016Z,7.94
2019-01-27T07:49:00.989Z,7.94
2019-01-27T07:50:01.003Z,8.02
2019-01-27T07:51:00.965Z,7.99
2019-01-27T07:52:00.965Z,8.02
2019-01-27T07:53:00.970Z,7.94
2019-01-27T07:54:00.948Z,7.97
2019-01-27T07:55:00.920Z,8.10
2019-01-27T07:56:01.035Z,7.99
2019-01-27T07:57:00.900Z,7.97
2019-01-27T07:58:00.913Z,7.99
2019-01-27T07:59:00.900Z,7.93
2019-01-27T08:00:00.902Z,7.96
2019-01-27T08:01:00.869Z,8.00
2019-01-27T08:02:00.876Z,7.97
2019-01-27T08:03:00.875Z,8.04
2019-01-27T08:04:00.855Z,8.04
2019-01-27T08:05:00.854Z,7.94
2019-01-27T08:06:00.842Z,8.03
2019-01-27T08:07:00.832Z,8.15
2019-01-27T08:08:00.808Z,8.15
2019-01-27T08:09:00.815Z,8.11
2019-01-27T08:10:00.843Z,8.14
2019-01-27T08:11:00.792Z,8.14
2019-01-27T08:12:00.788Z,8.14
2019-01-27T08:13:00.765Z,8.18
2019-01-27T08:14:00.781Z,8.28
2019-01-27T08:15:00.750Z,8.26
2019-01-27T08:16:00.761Z,8.20
2019-01-27T08:17:00.940Z,8.21
2019-01-27T08:18:00.762Z,8.32
2019-01-27T08:19:00.742Z,8.40
2019-01-27T08:20:00.735Z,8.35
2019-01-27T08:21:00.693Z,8.30
2019-01-27T08:22:00.691Z,8.22
2019-01-27T08:23:00.853Z,8.30
2019-01-27T08:24:00.710Z,8.30
2019-01-27T08:25:00.704Z,8.26
2019-01-27T08:26:00.681Z,8.22
2019-01-27T08:27:00.697Z,8.28
2019-01-27T08:28:00.635Z,8.30
2019-01-27T08:29:00.627Z,8.25
2019-01-27T08:30:00.627Z,8.28
2019-01-27T08:31:00.654Z,8.37
2019-01-27T08:32:00.649Z,8.36
2019-01-27T08:33:00.621Z,8.39
2019-01-27T08:34:00.592Z,8.33
2019-01-27T08:35:00.577Z,8.47
2019-01-27T08:36:00.604Z,8.42
2019-01-27T08:37:00.564Z,8.40
2019-01-27T08:38:00.572Z,8.45
2019-01-27T08:39:00.567Z,8.45
2019-01-27T08:40:00.566Z,8.40
2019-01-27T08:41:00.572Z,8.45
2019-01-27T08:42:00.527Z,8.48
2019-01-27T08:43:00.539Z,8.45
2019-01-27T08:44:00.499Z,8.48
2019-01-27T08:45:00.542Z,8.54
2019-01-27T08:46:00.523Z,8.48
2019-01-27T08:47:00.545Z,8.50
2019-01-27T08:48:00.480Z,8.47
2019-01-27T08:49:00.487Z,8.48
2019-01-27T08:50:00.474Z,8.50
2019-01-27T08:51:00.448Z,8.50
2019-01-27T08:52:00.466Z,8.51
2019-01-27T08:53:00.459Z,8.58
2019-01-27T08:54:00.432Z,8.51
2019-01-27T08:55:00.438Z,8.53
2019-01-27T08:56:00.454Z,8.57
2019-01-27T08:57:00.436Z,8.51
2019-01-27T08:58:00.396Z,8.58
2019-01-27T08:59:00.440Z,8.55
2019-01-27T09:00:00.413Z,8.58
2019-01-27T09:01:00.404Z,8.54
2019-01-27T09:02:00.379Z,8.51
2019-01-27T09:03:00.375Z,8.54
2019-01-27T09:04:00.402Z,8.51
2019-01-27T09:05:00.347Z,8.48
2019-01-27T09:06:00.340Z,8.55
2019-01-27T09:07:00.345Z,8.58
2019-01-27T09:08:00.327Z,8.58
2019-01-27T09:09:00.300Z,8.55
2019-01-27T09:10:00.317Z,8.68
2019-01-27T09:11:00.291Z,8.58
2019-01-27T09:12:00.289Z,8.69
2019-01-27T09:13:00.530Z,8.62
2019-01-27T09:14:00.296Z,8.69
2019-01-27T09:15:00.329Z,8.66
2019-01-27T09:16:00.281Z,8.66
2019-01-27T09:17:00.353Z,8.76
2019-01-27T09:18:00.237Z,8.75
2019-01-27T09:19:00.226Z,8.72
2019-01-27T09:20:00.331Z,8.78
2019-01-27T09:21:00.299Z,8.69
2019-01-27T09:22:01.444Z,8.68
2019-01-27T09:23:00.217Z,8.79
2019-01-27T09:24:00.198Z,8.75
2019-01-27T09:25:00.240Z,8.86
2019-01-27T09:26:00.271Z,8.76
2019-01-27T09:27:00.154Z,8.75
2019-01-27T09:28:00.192Z,8.86
2019-01-27T09:29:00.207Z,8.84
2019-01-27T09:30:00.214Z,8.90
2019-01-27T09:31:00.122Z,8.90
2019-01-27T09:32:00.147Z,8.93
2019-01-27T09:33:00.124Z,8.96
2019-01-27T09:34:00.128Z,8.96
2019-01-27T09:35:00.622Z,8.96
2019-01-27T09:36:00.084Z,8.90
2019-01-27T09:37:00.140Z,9.01
2019-01-27T09:38:00.155Z,9.05
2019-01-27T09:39:00.079Z,9.09
2019-01-27T09:40:00.116Z,9.23
2019-01-27T09:41:00.149Z,9.06
2019-01-27T09:42:00.725Z,9.16
2019-01-27T09:43:00.074Z,9.23
2019-01-27T09:44:00.048Z,9.23
2019-01-27T09:45:00.233Z,9.27
2019-01-27T09:46:05.482Z,9.27
2019-01-27T09:47:00.017Z,9.25
2019-01-27T09:48:00.029Z,9.23
2019-01-27T09:49:00.044Z,9.23
2019-01-27T09:50:00.050Z,9.27
2019-01-27T09:51:00.022Z,9.23
2019-01-27T09:51:59.963Z,9.24
2019-01-27T09:52:59.968Z,9.24
2019-01-27T09:53:59.954Z,9.20
2019-01-27T09:54:59.950Z,9.30
2019-01-27T09:55:59.973Z,9.25
2019-01-27T09:57:00.006Z,9.34
2019-01-27T09:57:59.930Z,9.42
2019-01-27T09:58:59.955Z,9.27
2019-01-27T09:59:59.941Z,9.32
2019-01-27T10:00:59.932Z,9.32
2019-01-27T10:01:59.903Z,9.38
2019-01-27T10:02:59.919Z,9.35
2019-01-27T10:03:59.964Z,9.27
2019-01-27T10:04:59.902Z,9.43
2019-01-27T10:05:59.882Z,9.45
2019-01-27T10:06:59.851Z,9.46
2019-01-27T10:07:59.888Z,9.34
2019-01-27T10:08:59.911Z,9.39
2019-01-27T10:09:59.859Z,9.48
2019-01-27T10:10:59.875Z,9.38
2019-01-27T10:11:59.858Z,9.39
2019-01-27T10:12:59.828Z,9.38
2019-01-27T10:13:59.813Z,9.34
2019-01-27T10:14:59.815Z,9.45
2019-01-27T10:15:59.812Z,9.50
2019-01-27T10:16:59.828Z,9.52
2019-01-27T10:18:08.789Z,9.46
2019-01-27T10:20:04.764Z,9.61
2019-01-27T10:21:04.566Z,9.58
2019-01-27T10:22:04.423Z,9.61
2019-01-27T10:23:04.365Z,9.64
2019-01-27T10:24:04.268Z,9.57
2019-01-27T10:25:04.313Z,9.70
2019-01-27T10:26:04.290Z,9.60
2019-01-27T10:27:04.383Z,9.70
2019-01-27T10:28:04.250Z,9.68
2019-01-27T10:29:04.356Z,9.66
2019-01-27T10:30:04.205Z,9.70
2019-01-27T10:31:04.331Z,9.70
2019-01-27T10:32:04.390Z,9.66
2019-01-27T10:33:04.250Z,9.73
2019-01-27T10:34:04.206Z,9.83
2019-01-27T10:35:04.211Z,9.82
2019-01-27T10:36:04.179Z,9.96
2019-01-27T10:37:04.181Z,9.96
2019-01-27T10:38:04.200Z,10.04
2019-01-27T10:39:04.165Z,10.09
2019-01-27T10:40:09.090Z,10.04
2019-01-27T10:41:04.135Z,10.04
2019-01-27T10:42:04.125Z,10.03
2019-01-27T10:43:04.144Z,10.00
2019-01-27T10:44:04.105Z,10.03
2019-01-27T10:45:04.110Z,9.97
2019-01-27T10:46:04.125Z,10.06
2019-01-27T10:47:04.086Z,10.09
2019-01-27T10:48:04.073Z,10.03
2019-01-27T10:49:04.205Z,10.04
2019-01-27T10:50:04.116Z,9.94
2019-01-27T10:51:04.068Z,9.94
2019-01-27T10:52:05.507Z,9.93
2019-01-27T10:53:04.062Z,9.99
2019-01-27T10:54:04.032Z,9.86
2019-01-27T10:55:04.069Z,9.99
2019-01-27T10:56:04.048Z,9.93
2019-01-27T10:57:04.053Z,9.82
2019-01-27T10:58:04.028Z,9.85
2019-01-27T10:59:04.100Z,9.89
2019-01-27T11:00:04.010Z,9.93
2019-01-27T11:01:03.997Z,9.91
2019-01-27T11:02:04.005Z,9.83
2019-01-27T11:03:03.980Z,9.71
2019-01-27T11:04:04.018Z,9.76
2019-01-27T11:05:03.978Z,9.78
2019-01-27T11:06:03.964Z,9.68
2019-01-27T11:07:03.982Z,9.66
2019-01-27T11:08:04.019Z,9.70
2019-01-27T11:09:04.054Z,9.70
2019-01-27T11:10:03.961Z,9.75
2019-01-27T11:11:03.934Z,9.71
2019-01-27T11:12:03.936Z,9.78
2019-01-27T11:13:03.898Z,9.78
2019-01-27T11:14:03.906Z,9.82
2019-01-27T11:15:03.919Z,9.82
2019-01-27T11:16:03.886Z,9.86
2019-01-27T11:17:03.890Z,9.79
2019-01-27T11:18:03.865Z,9.88
2019-01-27T11:19:03.894Z,9.86
2019-01-27T11:20:03.902Z,9.94
2019-01-27T11:21:04.002Z,9.97
2019-01-27T11:22:03.904Z,9.96
2019-01-27T11:23:03.823Z,9.99
2019-01-27T11:24:03.823Z,10.04
2019-01-27T11:25:03.816Z,10.19
2019-01-27T11:26:03.968Z,10.14
2019-01-27T11:27:03.827Z,10.17
2019-01-27T11:28:03.793Z,10.21
2019-01-27T11:29:03.813Z,10.01
2019-01-27T11:30:03.815Z,10.03
2019-01-27T11:31:03.773Z,10.03
2019-01-27T11:32:03.790Z,10.06
2019-01-27T11:33:03.774Z,10.06
2019-01-27T11:34:03.798Z,10.07
2019-01-27T11:35:03.740Z,10.06
2019-01-27T11:36:03.756Z,9.96
2019-01-27T11:37:03.760Z,10.03
2019-01-27T11:38:03.747Z,10.07
2019-01-27T11:39:03.816Z,10.04
2019-01-27T11:40:03.726Z,10.14
2019-01-27T11:41:03.721Z,10.12
2019-01-27T11:42:03.713Z,10.25
2019-01-27T11:43:03.686Z,10.15
2019-01-27T11:44:03.681Z,10.12
2019-01-27T11:45:03.769Z,10.21
2019-01-27T11:46:03.697Z,10.06
2019-01-27T11:47:03.664Z,10.04
2019-01-27T11:48:03.684Z,10.14
2019-01-27T11:49:03.657Z,10.17
2019-01-27T11:50:03.669Z,10.19
2019-01-27T11:51:03.666Z,10.14
2019-01-27T11:52:03.634Z,10.19
2019-01-27T11:53:03.687Z,10.18
2019-01-27T11:54:03.627Z,10.10
2019-01-27T11:55:03.762Z,10.15
2019-01-27T11:56:03.660Z,10.04
2019-01-27T11:57:03.685Z,10.06
2019-01-27T11:58:03.594Z,10.09
2019-01-27T11:59:03.601Z,10.07
2019-01-27T12:00:03.579Z,10.00
2019-01-27T12:01:03.582Z,10.01
2019-01-27T12:02:03.553Z,10.01
2019-01-27T12:03:03.568Z,10.06
2019-01-27T12:04:03.555Z,10.07
2019-01-27T12:05:03.568Z,10.01
2019-01-27T12:06:03.553Z,10.03
2019-01-27T12:07:03.526Z,10.03
2019-01-27T12:08:03.513Z,10.10
2019-01-27T12:09:03.522Z,10.09
2019-01-27T12:10:03.501Z,10.01
2019-01-27T12:11:03.534Z,9.99
2019-01-27T12:12:03.497Z,10.06
2019-01-27T12:13:03.515Z,10.09
2019-01-27T12:14:03.494Z,10.12
2019-01-27T12:15:03.494Z,10.10
2019-01-27T12:16:03.486Z,10.06
2019-01-27T12:17:03.449Z,9.99
2019-01-27T12:18:03.465Z,10.07
2019-01-27T12:19:03.455Z,10.03
2019-01-27T12:20:03.460Z,10.06
2019-01-27T12:21:03.575Z,10.07
2019-01-27T12:22:03.429Z,10.04
2019-01-27T12:23:03.429Z,10.04
2019-01-27T12:24:03.408Z,10.03
2019-01-27T12:25:03.402Z,9.96
2019-01-27T12:26:03.421Z,10.01
2019-01-27T12:27:03.430Z,9.96
2019-01-27T12:28:03.391Z,9.94
2019-01-27T12:29:03.420Z,10.00
2019-01-27T12:30:03.389Z,9.93
2019-01-27T12:31:03.353Z,10.00
2019-01-27T12:32:03.356Z,9.96
2019-01-27T12:33:03.356Z,9.94
2019-01-27T12:34:03.404Z,9.93
2019-01-27T12:35:03.356Z,9.94
2019-01-27T12:36:03.342Z,9.96
2019-01-27T12:37:03.338Z,9.97
2019-01-27T12:39:42.753Z,10.01
2019-01-27T12:40:42.708Z,9.97
2019-01-27T12:42:47.215Z,9.96
2019-01-27T12:43:47.209Z,9.94
2019-01-27T12:44:47.169Z,9.94
2019-01-27T12:45:47.197Z,9.96
2019-01-27T12:46:47.179Z,10.01
2019-01-27T12:47:47.158Z,9.94
2019-01-27T12:48:47.165Z,9.97
2019-01-27T12:49:47.132Z,9.94
2019-01-27T12:50:47.134Z,9.93
2019-01-27T12:51:47.133Z,10.09
2019-01-27T12:52:47.143Z,10.00
2019-01-27T12:53:47.136Z,10.00
2019-01-27T12:54:47.161Z,9.99
2019-01-27T12:55:47.175Z,9.96
2019-01-27T12:56:47.115Z,9.94
2019-01-27T12:57:47.163Z,10.03
2019-01-27T12:58:47.133Z,9.97
2019-01-27T12:59:47.170Z,10.12
2019-01-27T13:00:47.090Z,9.93
2019-01-27T13:01:47.099Z,10.06
2019-01-27T13:02:47.084Z,10.09
2019-01-27T13:03:47.054Z,10.12
2019-01-27T13:04:47.024Z,10.09
2019-01-27T13:05:47.035Z,10.06
2019-01-27T13:06:47.032Z,10.07
2019-01-27T13:07:47.075Z,10.09
2019-01-27T13:08:47.039Z,10.07
2019-01-27T13:09:47.068Z,10.07
2019-01-27T13:10:47.003Z,10.01
2019-01-27T13:11:46.985Z,10.04
2019-01-27T13:12:46.973Z,10.14
2019-01-27T13:13:46.992Z,10.07
2019-01-27T13:14:47.322Z,10.04
2019-01-27T13:15:46.965Z,10.04
2019-01-27T13:16:47.097Z,10.17
2019-01-27T13:17:46.974Z,10.17
2019-01-27T13:18:46.962Z,10.06
2019-01-27T13:19:53.587Z,10.17
2019-01-27T13:20:46.930Z,10.14
2019-01-27T13:21:46.917Z,10.04
2019-01-27T13:22:46.932Z,10.21
2019-01-27T13:23:46.928Z,10.21
2019-01-27T13:24:46.904Z,10.18
2019-01-27T13:25:46.953Z,10.18
2019-01-27T13:26:46.867Z,10.18
2019-01-27T13:27:46.910Z,10.22
2019-01-27T13:28:46.909Z,10.21
2019-01-27T13:29:46.857Z,10.10
2019-01-27T13:30:46.867Z,10.03
2019-01-27T13:31:46.891Z,10.12
2019-01-27T13:32:46.901Z,10.09
2019-01-27T13:33:46.891Z,10.04
2019-01-27T13:36:51.519Z,10.03
2019-01-27T13:37:50.867Z,10.09
2019-01-27T13:38:51.085Z,10.21
2019-01-27T13:39:50.779Z,10.01
2019-01-27T13:40:50.650Z,10.06
2019-01-27T13:41:50.738Z,10.01
2019-01-27T13:42:50.641Z,10.00
2019-01-27T13:43:50.582Z,9.94
2019-01-27T13:44:50.588Z,9.96
2019-01-27T13:45:50.600Z,9.89
2019-01-27T13:46:50.567Z,9.96
2019-01-27T13:47:50.593Z,10.04
2019-01-27T13:48:50.628Z,9.99
2019-01-27T13:49:50.597Z,9.96
2019-01-27T13:50:50.536Z,9.79
2019-01-27T13:51:50.505Z,9.85
2019-01-27T13:52:50.514Z,9.81
2019-01-27T13:53:50.514Z,9.85
2019-01-27T13:55:00.244Z,9.83
2019-01-27T13:56:55.032Z,9.83
2019-01-27T13:59:34.431Z,9.81
2019-01-27T14:00:34.183Z,9.63
2019-01-27T14:01:34.199Z,9.78
2019-01-27T14:02:34.160Z,9.68
2019-01-27T14:03:34.144Z,9.70
2019-01-27T14:04:34.120Z,9.71
2019-01-27T14:05:34.123Z,9.68
2019-01-27T14:06:34.127Z,9.67
2019-01-27T14:07:34.234Z,9.78
2019-01-27T14:08:34.086Z,9.78
2019-01-27T14:09:34.103Z,9.63
2019-01-27T14:10:34.116Z,9.67
2019-01-27T14:11:34.088Z,9.67
2019-01-27T14:12:34.058Z,9.61
2019-01-27T14:13:34.084Z,9.71
2019-01-27T14:14:34.049Z,9.68
2019-01-27T14:15:34.079Z,9.60
2019-01-27T14:16:34.148Z,9.68
2019-01-27T14:17:34.159Z,9.66
2019-01-27T14:18:34.260Z,9.64
2019-01-27T14:19:34.017Z,9.67
2019-01-27T14:20:34.016Z,9.71
2019-01-27T14:21:34.018Z,9.64
2019-01-27T14:22:34.036Z,9.58
2019-01-27T14:23:33.988Z,9.66
2019-01-27T14:24:34.016Z,9.70
2019-01-27T14:25:34.089Z,9.67
2019-01-27T14:26:34.056Z,9.61
2019-01-27T14:27:34.084Z,9.66
2019-01-27T14:28:33.980Z,9.66
2019-01-27T14:29:33.999Z,9.66
2019-01-27T14:30:33.941Z,9.64
2019-01-27T14:31:33.947Z,9.52
2019-01-27T14:32:33.958Z,9.66
2019-01-27T14:33:33.980Z,9.63
2019-01-27T14:34:33.919Z,9.56
2019-01-27T14:35:33.955Z,9.58
2019-01-27T14:36:33.930Z,9.58
2019-01-27T14:37:34.234Z,9.60
2019-01-27T14:38:33.874Z,9.60
2019-01-27T14:39:33.886Z,9.57
2019-01-27T14:40:33.860Z,9.64
2019-01-27T14:41:33.866Z,9.57
2019-01-27T14:42:33.866Z,9.56
2019-01-27T14:43:33.951Z,9.46
2019-01-27T14:44:33.917Z,9.57
2019-01-27T14:45:33.834Z,9.56
2019-01-27T14:46:33.815Z,9.49
2019-01-27T14:47:33.853Z,9.56
2019-01-27T14:48:34.518Z,9.45
2019-01-27T14:49:33.794Z,9.50
2019-01-27T14:50:33.820Z,9.45
2019-01-27T14:51:33.826Z,9.49
2019-01-27T14:52:33.802Z,9.50
2019-01-27T14:53:33.787Z,9.49
2019-01-27T14:54:33.791Z,9.52
2019-01-27T14:55:33.831Z,9.52
2019-01-27T14:56:33.735Z,9.48
2019-01-27T14:57:33.761Z,9.49
2019-01-27T14:58:33.744Z,9.49
2019-01-27T14:59:33.768Z,9.49
2019-01-27T15:00:36.340Z,9.52
2019-01-27T15:01:33.716Z,9.49
2019-01-27T15:02:33.745Z,9.50
2019-01-27T15:03:33.849Z,9.49
2019-01-27T15:04:33.758Z,9.48
2019-01-27T15:05:33.714Z,9.38
2019-01-27T15:06:33.676Z,9.42
2019-01-27T15:07:33.744Z,9.46
2019-01-27T15:08:33.698Z,9.50
2019-01-27T15:09:42.354Z,9.56
2019-01-27T15:11:38.339Z,9.49
2019-01-27T15:12:38.117Z,9.50
2019-01-27T15:13:38.117Z,9.43
2019-01-27T15:14:38.131Z,9.39
2019-01-27T15:15:38.140Z,9.40
2019-01-27T15:16:38.078Z,9.30
2019-01-27T15:17:38.219Z,9.32
2019-01-27T15:18:38.063Z,9.28
2019-01-27T15:19:38.071Z,9.25
2019-01-27T15:20:38.107Z,9.28
2019-01-27T15:21:38.176Z,9.18
2019-01-27T15:22:38.054Z,9.25
2019-01-27T15:23:38.070Z,9.24
2019-01-27T15:24:38.041Z,9.01
2019-01-27T15:25:38.123Z,9.12
2019-01-27T15:26:38.064Z,9.06
2019-01-27T15:27:38.015Z,9.10
2019-01-27T15:28:38.006Z,8.97
2019-01-27T15:29:38.028Z,8.91
2019-01-27T15:30:38.018Z,8.97
2019-01-27T15:31:37.973Z,8.94
2019-01-27T15:32:37.983Z,8.94
2019-01-27T15:33:37.952Z,8.87
2019-01-27T15:34:38.001Z,8.86
2019-01-27T15:35:37.970Z,8.79
2019-01-27T15:36:37.941Z,8.81
2019-01-27T15:37:37.981Z,8.76
2019-01-27T15:38:37.975Z,8.72
2019-01-27T15:39:37.928Z,8.66
2019-01-27T15:40:37.952Z,8.68
2019-01-27T15:41:37.899Z,8.66
2019-01-27T15:42:37.916Z,8.65
2019-01-27T15:43:37.959Z,8.62
2019-01-27T15:44:37.931Z,8.63
2019-01-27T15:45:38.004Z,8.54
2019-01-27T15:46:37.893Z,8.63
2019-01-27T15:47:37.853Z,8.69
2019-01-27T15:48:37.913Z,8.51
2019-01-27T15:49:37.835Z,8.57
2019-01-27T15:50:37.905Z,8.54
2019-01-27T15:51:37.819Z,8.55
2019-01-27T15:52:37.867Z,8.54
2019-01-27T15:53:37.828Z,8.50
2019-01-27T15:54:37.834Z,8.51
2019-01-27T15:55:37.851Z,8.53
2019-01-27T15:56:37.775Z,8.44
2019-01-27T15:57:37.851Z,8.37
2019-01-27T15:58:37.822Z,8.39
2019-01-27T15:59:37.785Z,8.37
2019-01-27T16:00:37.752Z,8.35
2019-01-27T16:01:37.807Z,8.40
2019-01-27T16:02:37.766Z,8.29
2019-01-27T16:03:37.719Z,8.30
2019-01-27T16:04:37.712Z,8.40
2019-01-27T16:05:37.731Z,8.36
2019-01-27T16:06:37.712Z,8.36
2019-01-27T16:07:37.738Z,8.28
2019-01-27T16:08:37.680Z,8.30
2019-01-27T16:09:37.678Z,8.25
2019-01-27T16:10:37.667Z,8.17
2019-01-27T16:11:37.656Z,8.26
2019-01-27T16:12:37.650Z,8.25
2019-01-27T16:13:37.672Z,8.20
2019-01-27T16:14:37.669Z,8.17
2019-01-27T16:15:37.626Z,8.21
2019-01-27T16:16:37.616Z,8.20
2019-01-27T16:17:37.607Z,8.21
2019-01-27T16:18:38.471Z,8.22
2019-01-27T16:19:37.613Z,8.21
2019-01-27T16:20:37.632Z,8.21
2019-01-27T16:21:37.596Z,8.04
2019-01-27T16:22:37.580Z,8.15
2019-01-27T16:23:37.560Z,8.17
2019-01-27T16:24:37.607Z,8.14
2019-01-27T16:25:37.549Z,8.08
2019-01-27T16:26:37.595Z,8.07
2019-01-27T16:27:37.558Z,8.12
2019-01-27T16:28:37.554Z,8.14
2019-01-27T16:29:37.547Z,8.11
2019-01-27T16:30:37.503Z,8.12
2019-01-27T16:31:37.572Z,8.18
2019-01-27T16:32:37.488Z,8.10
2019-01-27T16:33:37.499Z,8.07
2019-01-27T16:34:37.486Z,8.15
2019-01-27T16:35:37.496Z,8.12
2019-01-27T16:36:37.486Z,8.12
2019-01-27T16:37:37.474Z,8.14
2019-01-27T16:38:37.454Z,8.12
2019-01-27T16:39:37.476Z,8.12
2019-01-27T16:40:39.721Z,8.12
2019-01-27T16:41:37.474Z,8.10
2019-01-27T16:42:37.544Z,8.15
2019-01-27T16:43:37.403Z,8.11
2019-01-27T16:44:37.489Z,8.11
2019-01-27T16:45:37.439Z,8.12
2019-01-27T16:46:37.456Z,8.15
2019-01-27T16:47:37.401Z,8.08
2019-01-27T16:48:37.414Z,8.12
2019-01-27T16:49:37.459Z,8.12
2019-01-27T16:50:37.349Z,8.17
2019-01-27T16:51:37.379Z,8.08
2019-01-27T16:52:37.327Z,8.04
2019-01-27T16:53:37.371Z,8.07
2019-01-27T16:54:37.346Z,8.14
2019-01-27T16:55:37.332Z,8.14
2019-01-27T16:56:37.338Z,8.12
2019-01-27T16:57:37.324Z,8.11
2019-01-27T16:58:37.348Z,8.15
2019-01-27T16:59:37.284Z,8.15
2019-01-27T17:00:37.305Z,8.21
2019-01-27T17:01:37.261Z,8.22
2019-01-27T17:02:37.280Z,8.15
2019-01-27T17:03:37.277Z,8.18
2019-01-27T17:04:37.252Z,8.14
2019-01-27T17:05:37.269Z,8.21
2019-01-27T17:06:37.232Z,8.14
2019-01-27T17:07:37.204Z,8.12
2019-01-27T17:08:37.234Z,8.17
2019-01-27T17:09:37.193Z,8.15
2019-01-27T17:10:37.246Z,8.21
2019-01-27T17:11:37.168Z,8.25